sensor_id;sensor_type;location;lat;lon;timestamp;P1;durP1;ratioP1;P2;durP2;ratioP2
24567;SDS011;12731;52.182;8.716;2023-03-04T00:02:00;24.77;;;4.40;;
24567;SDS011;12731;52.182;8.716;2023-03-04T00:04:26;23.23;;;4.22;;
24567;SDS011;12731;52.182;8.716;2023-03-04T00:06:53;22.13;;;4.53;;
24567;SDS011;12731;52.182;8.716;2023-03-04T00:09:19;21.75;;;4.38;;
24567;SDS011;12731;52.182;8.716;2023-03-04T00:11:46;17.67;;;3.75;;
24567;SDS011;12731;52.182;8.716;2023-03-04T00:14:12;18.58;;;3.45;;
24567;SDS011;12731;52.182;8.716;2023-03-04T00:16:39;22.35;;;4.20;;
24567;SDS011;12731;52.182;8.716;2023-03-04T00:19:05;24.38;;;4.88;;
24567;SDS011;12731;52.182;8.716;2023-03-04T00:21:32;28.83;;;3.88;;
24567;SDS011;12731;52.182;8.716;2023-03-04T00:23:58;29.30;;;5.03;;
24567;SDS011;12731;52.182;8.716;2023-03-04T00:26:25;17.52;;;4.30;;
24567;SDS011;12731;52.182;8.716;2023-03-04T00:28:51;23.60;;;4.55;;
24567;SDS011;12731;52.182;8.716;2023-03-04T00:31:18;21.55;;;4.07;;
24567;SDS011;12731;52.182;8.716;2023-03-04T00:33:44;24.20;;;4.20;;
24567;SDS011;12731;52.182;8.716;2023-03-04T00:36:10;25.15;;;4.68;;
24567;SDS011;12731;52.182;8.716;2023-03-04T00:38:37;16.98;;;3.75;;
24567;SDS011;12731;52.182;8.716;2023-03-04T00:41:03;19.05;;;3.85;;
24567;SDS011;12731;52.182;8.716;2023-03-04T00:43:30;21.70;;;4.30;;
24567;SDS011;12731;52.182;8.716;2023-03-04T00:45:57;19.35;;;3.80;;
24567;SDS011;12731;52.182;8.716;2023-03-04T00:48:23;22.55;;;4.30;;
24567;SDS011;12731;52.182;8.716;2023-03-04T00:50:50;19.27;;;3.90;;
24567;SDS011;12731;52.182;8.716;2023-03-04T00:53:19;17.90;;;3.45;;
24567;SDS011;12731;52.182;8.716;2023-03-04T00:55:46;21.40;;;3.97;;
24567;SDS011;12731;52.182;8.716;2023-03-04T00:58:12;25.60;;;3.63;;
24567;SDS011;12731;52.182;8.716;2023-03-04T01:00:38;19.52;;;3.67;;
24567;SDS011;12731;52.182;8.716;2023-03-04T01:03:05;17.95;;;4.15;;
24567;SDS011;12731;52.182;8.716;2023-03-04T01:05:31;17.15;;;3.75;;
24567;SDS011;12731;52.182;8.716;2023-03-04T01:08:01;19.00;;;3.67;;
24567;SDS011;12731;52.182;8.716;2023-03-04T01:10:28;33.20;;;4.78;;
24567;SDS011;12731;52.182;8.716;2023-03-04T01:12:54;23.00;;;3.65;;
24567;SDS011;12731;52.182;8.716;2023-03-04T01:15:20;19.02;;;4.00;;
24567;SDS011;12731;52.182;8.716;2023-03-04T01:17:47;22.88;;;4.32;;
24567;SDS011;12731;52.182;8.716;2023-03-04T01:20:14;17.60;;;3.35;;
24567;SDS011;12731;52.182;8.716;2023-03-04T01:22:40;24.33;;;3.97;;
24567;SDS011;12731;52.182;8.716;2023-03-04T01:25:07;19.55;;;3.28;;
24567;SDS011;12731;52.182;8.716;2023-03-04T01:27:34;24.25;;;4.13;;
24567;SDS011;12731;52.182;8.716;2023-03-04T01:30:00;18.90;;;3.60;;
24567;SDS011;12731;52.182;8.716;2023-03-04T01:32:27;18.77;;;3.50;;
24567;SDS011;12731;52.182;8.716;2023-03-04T01:34:53;18.15;;;3.25;;
24567;SDS011;12731;52.182;8.716;2023-03-04T01:37:20;19.98;;;3.25;;
24567;SDS011;12731;52.182;8.716;2023-03-04T01:39:46;19.30;;;3.50;;
24567;SDS011;12731;52.182;8.716;2023-03-04T01:42:17;20.55;;;3.63;;
24567;SDS011;12731;52.182;8.716;2023-03-04T01:44:45;20.20;;;3.90;;
24567;SDS011;12731;52.182;8.716;2023-03-04T01:47:12;15.35;;;3.83;;
24567;SDS011;12731;52.182;8.716;2023-03-04T01:49:39;19.75;;;3.25;;
24567;SDS011;12731;52.182;8.716;2023-03-04T01:52:08;19.10;;;3.30;;
24567;SDS011;12731;52.182;8.716;2023-03-04T01:54:36;18.00;;;3.70;;
24567;SDS011;12731;52.182;8.716;2023-03-04T01:57:06;16.98;;;3.75;;
24567;SDS011;12731;52.182;8.716;2023-03-04T01:59:41;18.38;;;2.72;;
24567;SDS011;12731;52.182;8.716;2023-03-04T02:02:07;19.55;;;2.83;;
24567;SDS011;12731;52.182;8.716;2023-03-04T02:04:34;17.42;;;3.60;;
24567;SDS011;12731;52.182;8.716;2023-03-04T02:07:00;21.20;;;3.33;;
24567;SDS011;12731;52.182;8.716;2023-03-04T02:09:28;16.88;;;3.40;;
24567;SDS011;12731;52.182;8.716;2023-03-04T02:11:56;19.65;;;3.88;;
24567;SDS011;12731;52.182;8.716;2023-03-04T02:14:22;18.55;;;2.97;;
24567;SDS011;12731;52.182;8.716;2023-03-04T02:16:49;17.80;;;3.05;;
24567;SDS011;12731;52.182;8.716;2023-03-04T02:19:35;22.73;;;3.58;;
24567;SDS011;12731;52.182;8.716;2023-03-04T02:22:07;12.25;;;2.38;;
24567;SDS011;12731;52.182;8.716;2023-03-04T02:24:38;15.77;;;2.88;;
24567;SDS011;12731;52.182;8.716;2023-03-04T02:29:33;17.25;;;3.58;;
24567;SDS011;12731;52.182;8.716;2023-03-04T02:31:59;16.02;;;2.67;;
24567;SDS011;12731;52.182;8.716;2023-03-04T02:34:30;20.83;;;3.15;;
24567;SDS011;12731;52.182;8.716;2023-03-04T02:36:58;15.35;;;2.85;;
24567;SDS011;12731;52.182;8.716;2023-03-04T02:41:59;15.80;;;2.65;;
24567;SDS011;12731;52.182;8.716;2023-03-04T02:44:31;9.75;;;2.05;;
24567;SDS011;12731;52.182;8.716;2023-03-04T02:47:03;16.80;;;2.88;;
24567;SDS011;12731;52.182;8.716;2023-03-04T02:49:31;17.15;;;2.90;;
24567;SDS011;12731;52.182;8.716;2023-03-04T02:51:59;15.52;;;2.80;;
24567;SDS011;12731;52.182;8.716;2023-03-04T02:54:27;19.67;;;2.80;;
24567;SDS011;12731;52.182;8.716;2023-03-04T02:56:55;14.95;;;2.33;;
24567;SDS011;12731;52.182;8.716;2023-03-04T02:59:25;16.15;;;2.38;;
24567;SDS011;12731;52.182;8.716;2023-03-04T03:01:52;13.27;;;2.42;;
24567;SDS011;12731;52.182;8.716;2023-03-04T03:04:19;12.20;;;2.70;;
24567;SDS011;12731;52.182;8.716;2023-03-04T03:06:46;13.50;;;3.00;;
24567;SDS011;12731;52.182;8.716;2023-03-04T03:09:13;16.92;;;3.03;;
24567;SDS011;12731;52.182;8.716;2023-03-04T03:11:40;13.65;;;2.90;;
24567;SDS011;12731;52.182;8.716;2023-03-04T03:14:06;15.05;;;3.20;;
24567;SDS011;12731;52.182;8.716;2023-03-04T03:16:33;20.80;;;3.20;;
24567;SDS011;12731;52.182;8.716;2023-03-04T03:18:59;15.35;;;2.63;;
24567;SDS011;12731;52.182;8.716;2023-03-04T03:21:26;15.32;;;2.80;;
24567;SDS011;12731;52.182;8.716;2023-03-04T03:23:52;16.35;;;3.55;;
24567;SDS011;12731;52.182;8.716;2023-03-04T03:26:19;16.23;;;3.40;;
24567;SDS011;12731;52.182;8.716;2023-03-04T03:28:45;14.10;;;3.38;;
24567;SDS011;12731;52.182;8.716;2023-03-04T03:31:12;17.63;;;3.47;;
24567;SDS011;12731;52.182;8.716;2023-03-04T03:33:39;16.25;;;3.17;;
24567;SDS011;12731;52.182;8.716;2023-03-04T03:36:05;14.40;;;3.03;;
24567;SDS011;12731;52.182;8.716;2023-03-04T03:38:33;12.35;;;2.63;;
24567;SDS011;12731;52.182;8.716;2023-03-04T03:40:59;13.30;;;3.15;;
24567;SDS011;12731;52.182;8.716;2023-03-04T03:43:26;18.48;;;2.88;;
24567;SDS011;12731;52.182;8.716;2023-03-04T03:45:52;12.48;;;2.78;;
24567;SDS011;12731;52.182;8.716;2023-03-04T03:48:19;14.25;;;2.50;;
24567;SDS011;12731;52.182;8.716;2023-03-04T03:50:45;13.63;;;2.38;;
24567;SDS011;12731;52.182;8.716;2023-03-04T03:53:12;15.10;;;2.47;;
24567;SDS011;12731;52.182;8.716;2023-03-04T03:55:38;12.60;;;2.38;;
24567;SDS011;12731;52.182;8.716;2023-03-04T03:58:04;15.25;;;2.80;;
24567;SDS011;12731;52.182;8.716;2023-03-04T04:00:31;13.15;;;2.53;;
24567;SDS011;12731;52.182;8.716;2023-03-04T04:02:57;15.32;;;2.30;;
24567;SDS011;12731;52.182;8.716;2023-03-04T04:05:25;10.93;;;2.40;;
24567;SDS011;12731;52.182;8.716;2023-03-04T04:07:52;13.07;;;2.22;;
24567;SDS011;12731;52.182;8.716;2023-03-04T04:10:19;10.68;;;2.40;;
24567;SDS011;12731;52.182;8.716;2023-03-04T04:12:46;12.45;;;2.17;;
24567;SDS011;12731;52.182;8.716;2023-03-04T04:15:13;11.38;;;2.05;;
24567;SDS011;12731;52.182;8.716;2023-03-04T04:17:39;11.02;;;2.40;;
24567;SDS011;12731;52.182;8.716;2023-03-04T04:20:06;8.50;;;1.88;;
24567;SDS011;12731;52.182;8.716;2023-03-04T04:22:35;14.13;;;2.22;;
24567;SDS011;12731;52.182;8.716;2023-03-04T04:25:01;11.73;;;2.40;;
24567;SDS011;12731;52.182;8.716;2023-03-04T04:27:28;11.73;;;2.30;;
24567;SDS011;12731;52.182;8.716;2023-03-04T04:29:54;10.85;;;2.38;;
24567;SDS011;12731;52.182;8.716;2023-03-04T04:32:21;11.40;;;2.20;;
24567;SDS011;12731;52.182;8.716;2023-03-04T04:34:47;14.48;;;2.80;;
24567;SDS011;12731;52.182;8.716;2023-03-04T04:37:14;7.35;;;2.10;;
24567;SDS011;12731;52.182;8.716;2023-03-04T04:39:40;12.35;;;2.70;;
24567;SDS011;12731;52.182;8.716;2023-03-04T04:42:07;14.57;;;2.72;;
24567;SDS011;12731;52.182;8.716;2023-03-04T04:44:36;11.38;;;2.58;;
24567;SDS011;12731;52.182;8.716;2023-03-04T04:47:04;18.83;;;3.25;;
24567;SDS011;12731;52.182;8.716;2023-03-04T04:49:32;11.27;;;2.50;;
24567;SDS011;12731;52.182;8.716;2023-03-04T04:51:58;12.68;;;2.38;;
24567;SDS011;12731;52.182;8.716;2023-03-04T04:54:25;8.68;;;1.80;;
24567;SDS011;12731;52.182;8.716;2023-03-04T04:56:51;11.07;;;2.40;;
24567;SDS011;12731;52.182;8.716;2023-03-04T04:59:18;12.63;;;2.53;;
24567;SDS011;12731;52.182;8.716;2023-03-04T05:01:44;17.90;;;2.88;;
24567;SDS011;12731;52.182;8.716;2023-03-04T05:04:11;12.90;;;2.65;;
24567;SDS011;12731;52.182;8.716;2023-03-04T05:06:37;12.75;;;2.45;;
24567;SDS011;12731;52.182;8.716;2023-03-04T05:09:04;12.50;;;2.45;;
24567;SDS011;12731;52.182;8.716;2023-03-04T05:11:31;12.25;;;2.60;;
24567;SDS011;12731;52.182;8.716;2023-03-04T05:13:58;12.18;;;2.50;;
24567;SDS011;12731;52.182;8.716;2023-03-04T05:16:24;12.20;;;2.88;;
24567;SDS011;12731;52.182;8.716;2023-03-04T05:18:50;9.18;;;2.17;;
24567;SDS011;12731;52.182;8.716;2023-03-04T05:21:17;10.63;;;2.40;;
24567;SDS011;12731;52.182;8.716;2023-03-04T05:23:43;11.48;;;1.95;;
24567;SDS011;12731;52.182;8.716;2023-03-04T05:26:11;12.07;;;2.35;;
24567;SDS011;12731;52.182;8.716;2023-03-04T05:28:39;17.35;;;2.53;;
24567;SDS011;12731;52.182;8.716;2023-03-04T05:31:06;8.57;;;2.10;;
24567;SDS011;12731;52.182;8.716;2023-03-04T05:33:32;11.30;;;2.50;;
24567;SDS011;12731;52.182;8.716;2023-03-04T05:35:59;12.85;;;2.65;;
24567;SDS011;12731;52.182;8.716;2023-03-04T05:38:25;11.30;;;2.30;;
24567;SDS011;12731;52.182;8.716;2023-03-04T05:40:59;17.83;;;3.03;;
24567;SDS011;12731;52.182;8.716;2023-03-04T05:43:28;11.65;;;3.22;;
24567;SDS011;12731;52.182;8.716;2023-03-04T05:45:55;15.13;;;2.67;;
24567;SDS011;12731;52.182;8.716;2023-03-04T05:48:22;19.25;;;2.83;;
24567;SDS011;12731;52.182;8.716;2023-03-04T05:50:52;13.75;;;2.95;;
24567;SDS011;12731;52.182;8.716;2023-03-04T05:53:22;12.93;;;2.97;;
24567;SDS011;12731;52.182;8.716;2023-03-04T05:55:49;13.98;;;2.40;;
24567;SDS011;12731;52.182;8.716;2023-03-04T05:58:20;8.43;;;2.28;;
24567;SDS011;12731;52.182;8.716;2023-03-04T06:00:46;10.90;;;2.97;;
24567;SDS011;12731;52.182;8.716;2023-03-04T06:03:14;14.82;;;3.40;;
24567;SDS011;12731;52.182;8.716;2023-03-04T06:05:42;13.43;;;3.08;;
24567;SDS011;12731;52.182;8.716;2023-03-04T06:08:09;16.63;;;3.30;;
24567;SDS011;12731;52.182;8.716;2023-03-04T06:10:37;18.33;;;3.17;;
24567;SDS011;12731;52.182;8.716;2023-03-04T06:13:04;11.23;;;2.63;;
24567;SDS011;12731;52.182;8.716;2023-03-04T06:15:31;10.50;;;2.30;;
24567;SDS011;12731;52.182;8.716;2023-03-04T06:17:58;14.30;;;3.03;;
24567;SDS011;12731;52.182;8.716;2023-03-04T06:20:24;10.05;;;2.78;;
24567;SDS011;12731;52.182;8.716;2023-03-04T06:22:50;19.35;;;3.03;;
24567;SDS011;12731;52.182;8.716;2023-03-04T06:25:17;12.52;;;3.08;;
24567;SDS011;12731;52.182;8.716;2023-03-04T06:27:43;9.18;;;2.45;;
24567;SDS011;12731;52.182;8.716;2023-03-04T06:30:10;11.30;;;2.88;;
24567;SDS011;12731;52.182;8.716;2023-03-04T06:32:36;9.57;;;2.75;;
24567;SDS011;12731;52.182;8.716;2023-03-04T06:35:03;15.23;;;2.80;;
24567;SDS011;12731;52.182;8.716;2023-03-04T06:37:30;10.07;;;2.83;;
24567;SDS011;12731;52.182;8.716;2023-03-04T06:39:56;13.43;;;3.00;;
24567;SDS011;12731;52.182;8.716;2023-03-04T06:42:23;11.15;;;2.47;;
24567;SDS011;12731;52.182;8.716;2023-03-04T06:44:49;11.90;;;2.70;;
24567;SDS011;12731;52.182;8.716;2023-03-04T06:47:15;17.23;;;2.85;;
24567;SDS011;12731;52.182;8.716;2023-03-04T06:49:43;12.50;;;2.58;;
24567;SDS011;12731;52.182;8.716;2023-03-04T06:52:10;10.50;;;2.90;;
24567;SDS011;12731;52.182;8.716;2023-03-04T06:54:38;10.13;;;2.80;;
24567;SDS011;12731;52.182;8.716;2023-03-04T06:57:05;16.00;;;3.05;;
24567;SDS011;12731;52.182;8.716;2023-03-04T06:59:32;15.13;;;2.90;;
24567;SDS011;12731;52.182;8.716;2023-03-04T07:01:58;18.98;;;3.38;;
24567;SDS011;12731;52.182;8.716;2023-03-04T07:04:25;13.93;;;2.78;;
24567;SDS011;12731;52.182;8.716;2023-03-04T07:06:51;12.85;;;2.60;;
24567;SDS011;12731;52.182;8.716;2023-03-04T07:09:18;13.88;;;2.83;;
24567;SDS011;12731;52.182;8.716;2023-03-04T07:11:44;9.30;;;2.45;;
24567;SDS011;12731;52.182;8.716;2023-03-04T07:14:11;10.73;;;2.90;;
24567;SDS011;12731;52.182;8.716;2023-03-04T07:16:37;12.82;;;3.20;;
24567;SDS011;12731;52.182;8.716;2023-03-04T07:19:06;12.13;;;3.13;;
24567;SDS011;12731;52.182;8.716;2023-03-04T07:21:33;14.38;;;3.08;;
24567;SDS011;12731;52.182;8.716;2023-03-04T07:23:59;11.93;;;2.90;;
24567;SDS011;12731;52.182;8.716;2023-03-04T07:26:26;12.25;;;3.22;;
24567;SDS011;12731;52.182;8.716;2023-03-04T07:28:52;13.32;;;3.50;;
24567;SDS011;12731;52.182;8.716;2023-03-04T07:33:50;14.43;;;3.65;;
24567;SDS011;12731;52.182;8.716;2023-03-04T07:36:16;13.55;;;3.45;;
24567;SDS011;12731;52.182;8.716;2023-03-04T07:38:45;13.07;;;4.00;;
24567;SDS011;12731;52.182;8.716;2023-03-04T07:41:12;13.60;;;3.38;;
24567;SDS011;12731;52.182;8.716;2023-03-04T07:43:39;10.18;;;3.22;;
24567;SDS011;12731;52.182;8.716;2023-03-04T07:46:05;14.45;;;3.42;;
24567;SDS011;12731;52.182;8.716;2023-03-04T07:48:32;13.13;;;3.38;;
24567;SDS011;12731;52.182;8.716;2023-03-04T07:51:05;14.02;;;3.45;;
24567;SDS011;12731;52.182;8.716;2023-03-04T07:53:32;13.23;;;3.63;;
24567;SDS011;12731;52.182;8.716;2023-03-04T07:55:59;12.77;;;3.00;;
24567;SDS011;12731;52.182;8.716;2023-03-04T07:58:27;12.13;;;3.05;;
24567;SDS011;12731;52.182;8.716;2023-03-04T08:00:54;7.85;;;2.78;;
24567;SDS011;12731;52.182;8.716;2023-03-04T08:03:20;11.65;;;3.15;;
24567;SDS011;12731;52.182;8.716;2023-03-04T08:05:47;8.93;;;3.05;;
24567;SDS011;12731;52.182;8.716;2023-03-04T08:08:13;9.75;;;2.80;;
24567;SDS011;12731;52.182;8.716;2023-03-04T08:10:42;10.75;;;2.45;;
24567;SDS011;12731;52.182;8.716;2023-03-04T08:13:09;13.88;;;2.63;;
24567;SDS011;12731;52.182;8.716;2023-03-04T08:15:38;10.18;;;3.45;;
24567;SDS011;12731;52.182;8.716;2023-03-04T08:18:06;8.15;;;2.78;;
24567;SDS011;12731;52.182;8.716;2023-03-04T08:20:32;8.10;;;2.90;;
24567;SDS011;12731;52.182;8.716;2023-03-04T08:22:59;12.65;;;3.17;;
24567;SDS011;12731;52.182;8.716;2023-03-04T08:25:25;14.40;;;3.25;;
24567;SDS011;12731;52.182;8.716;2023-03-04T08:27:52;11.10;;;2.72;;
24567;SDS011;12731;52.182;8.716;2023-03-04T08:30:18;9.38;;;2.92;;
24567;SDS011;12731;52.182;8.716;2023-03-04T08:32:44;9.70;;;3.00;;
24567;SDS011;12731;52.182;8.716;2023-03-04T08:35:11;13.50;;;3.03;;
24567;SDS011;12731;52.182;8.716;2023-03-04T08:37:37;14.20;;;2.95;;
24567;SDS011;12731;52.182;8.716;2023-03-04T08:40:04;12.05;;;3.05;;
24567;SDS011;12731;52.182;8.716;2023-03-04T08:42:31;13.55;;;3.75;;
24567;SDS011;12731;52.182;8.716;2023-03-04T08:44:57;13.63;;;3.58;;
24567;SDS011;12731;52.182;8.716;2023-03-04T08:47:24;13.18;;;3.53;;
24567;SDS011;12731;52.182;8.716;2023-03-04T08:49:50;14.48;;;3.65;;
24567;SDS011;12731;52.182;8.716;2023-03-04T08:52:17;12.30;;;3.85;;
24567;SDS011;12731;52.182;8.716;2023-03-04T08:54:43;17.02;;;3.80;;
24567;SDS011;12731;52.182;8.716;2023-03-04T08:57:10;11.90;;;4.18;;
24567;SDS011;12731;52.182;8.716;2023-03-04T08:59:36;12.27;;;3.60;;
24567;SDS011;12731;52.182;8.716;2023-03-04T09:02:03;9.27;;;4.20;;
24567;SDS011;12731;52.182;8.716;2023-03-04T09:04:30;10.50;;;3.90;;
24567;SDS011;12731;52.182;8.716;2023-03-04T09:06:56;14.13;;;4.45;;
24567;SDS011;12731;52.182;8.716;2023-03-04T09:09:23;10.68;;;3.75;;
24567;SDS011;12731;52.182;8.716;2023-03-04T09:11:49;13.55;;;4.50;;
24567;SDS011;12731;52.182;8.716;2023-03-04T09:14:16;12.88;;;4.40;;
24567;SDS011;12731;52.182;8.716;2023-03-04T09:16:42;11.88;;;4.13;;
24567;SDS011;12731;52.182;8.716;2023-03-04T09:19:09;11.27;;;3.90;;
24567;SDS011;12731;52.182;8.716;2023-03-04T09:21:35;14.70;;;4.40;;
24567;SDS011;12731;52.182;8.716;2023-03-04T09:24:02;14.93;;;4.53;;
24567;SDS011;12731;52.182;8.716;2023-03-04T09:26:28;10.38;;;4.30;;
24567;SDS011;12731;52.182;8.716;2023-03-04T09:28:55;11.07;;;4.13;;
24567;SDS011;12731;52.182;8.716;2023-03-04T09:31:25;14.75;;;4.00;;
24567;SDS011;12731;52.182;8.716;2023-03-04T09:33:53;10.82;;;4.38;;
24567;SDS011;12731;52.182;8.716;2023-03-04T09:36:20;11.77;;;4.38;;
24567;SDS011;12731;52.182;8.716;2023-03-04T09:38:47;9.25;;;4.72;;
24567;SDS011;12731;52.182;8.716;2023-03-04T09:41:24;13.07;;;4.75;;
24567;SDS011;12731;52.182;8.716;2023-03-04T09:44:03;12.10;;;4.55;;
24567;SDS011;12731;52.182;8.716;2023-03-04T09:46:34;11.07;;;4.60;;
24567;SDS011;12731;52.182;8.716;2023-03-04T09:49:03;11.48;;;4.20;;
24567;SDS011;12731;52.182;8.716;2023-03-04T09:54:19;13.27;;;5.80;;
24567;SDS011;12731;52.182;8.716;2023-03-04T09:56:54;11.82;;;4.80;;
24567;SDS011;12731;52.182;8.716;2023-03-04T09:59:26;11.38;;;3.90;;
24567;SDS011;12731;52.182;8.716;2023-03-04T10:01:57;10.77;;;4.50;;
24567;SDS011;12731;52.182;8.716;2023-03-04T10:04:28;10.23;;;4.00;;
24567;SDS011;12731;52.182;8.716;2023-03-04T10:06:58;8.32;;;3.88;;
24567;SDS011;12731;52.182;8.716;2023-03-04T10:12:42;11.63;;;4.20;;
24567;SDS011;12731;52.182;8.716;2023-03-04T10:15:22;9.13;;;3.30;;
24567;SDS011;12731;52.182;8.716;2023-03-04T10:20:55;7.45;;;2.67;;
24567;SDS011;12731;52.182;8.716;2023-03-04T10:23:25;5.85;;;2.28;;
24567;SDS011;12731;52.182;8.716;2023-03-04T10:25:52;7.30;;;3.08;;
24567;SDS011;12731;52.182;8.716;2023-03-04T10:30:56;6.47;;;2.72;;
24567;SDS011;12731;52.182;8.716;2023-03-04T10:33:28;4.18;;;2.03;;
24567;SDS011;12731;52.182;8.716;2023-03-04T10:36:03;4.82;;;1.60;;
24567;SDS011;12731;52.182;8.716;2023-03-04T10:38:51;6.50;;;2.10;;
24567;SDS011;12731;52.182;8.716;2023-03-04T10:41:20;6.30;;;2.20;;
24567;SDS011;12731;52.182;8.716;2023-03-04T10:43:59;6.30;;;1.80;;
24567;SDS011;12731;52.182;8.716;2023-03-04T10:46:30;5.00;;;1.70;;
24567;SDS011;12731;52.182;8.716;2023-03-04T10:48:57;3.13;;;1.65;;
24567;SDS011;12731;52.182;8.716;2023-03-04T10:51:24;5.15;;;1.70;;
24567;SDS011;12731;52.182;8.716;2023-03-04T10:54:36;2.45;;;1.40;;
24567;SDS011;12731;52.182;8.716;2023-03-04T10:56:42;4.55;;;1.80;;
24567;SDS011;12731;52.182;8.716;2023-03-04T11:01:59;8.10;;;1.67;;
24567;SDS011;12731;52.182;8.716;2023-03-04T11:04:41;8.02;;;1.98;;
24567;SDS011;12731;52.182;8.716;2023-03-04T11:07:08;7.88;;;1.92;;
24567;SDS011;12731;52.182;8.716;2023-03-04T11:09:36;6.20;;;2.05;;
24567;SDS011;12731;52.182;8.716;2023-03-04T11:12:05;8.35;;;2.30;;
24567;SDS011;12731;52.182;8.716;2023-03-04T11:14:46;9.77;;;2.15;;
24567;SDS011;12731;52.182;8.716;2023-03-04T11:19:43;9.32;;;2.45;;
24567;SDS011;12731;52.182;8.716;2023-03-04T11:22:19;9.18;;;1.90;;
24567;SDS011;12731;52.182;8.716;2023-03-04T11:24:53;6.93;;;1.77;;
24567;SDS011;12731;52.182;8.716;2023-03-04T11:27:29;6.28;;;1.60;;
24567;SDS011;12731;52.182;8.716;2023-03-04T11:30:14;6.70;;;1.90;;
24567;SDS011;12731;52.182;8.716;2023-03-04T11:32:45;7.55;;;1.98;;
24567;SDS011;12731;52.182;8.716;2023-03-04T11:35:49;9.25;;;2.15;;
24567;SDS011;12731;52.182;8.716;2023-03-04T11:38:23;9.18;;;2.50;;
24567;SDS011;12731;52.182;8.716;2023-03-04T11:41:39;11.55;;;2.53;;
24567;SDS011;12731;52.182;8.716;2023-03-04T11:43:47;10.93;;;3.22;;
24567;SDS011;12731;52.182;8.716;2023-03-04T11:46:48;11.52;;;2.50;;
24567;SDS011;12731;52.182;8.716;2023-03-04T11:49:33;9.85;;;2.88;;
24567;SDS011;12731;52.182;8.716;2023-03-04T11:52:23;10.55;;;3.15;;
24567;SDS011;12731;52.182;8.716;2023-03-04T12:00:50;14.20;;;3.65;;
24567;SDS011;12731;52.182;8.716;2023-03-04T12:06:11;11.02;;;3.17;;
24567;SDS011;12731;52.182;8.716;2023-03-04T12:14:22;13.77;;;2.30;;
24567;SDS011;12731;52.182;8.716;2023-03-04T12:22:58;11.60;;;2.05;;
24567;SDS011;12731;52.182;8.716;2023-03-04T12:25:38;13.45;;;1.73;;
24567;SDS011;12731;52.182;8.716;2023-03-04T12:28:20;5.75;;;1.60;;
24567;SDS011;12731;52.182;8.716;2023-03-04T12:31:54;12.88;;;2.30;;
24567;SDS011;12731;52.182;8.716;2023-03-04T12:33:59;7.75;;;2.05;;
24567;SDS011;12731;52.182;8.716;2023-03-04T12:36:32;7.00;;;1.63;;
24567;SDS011;12731;52.182;8.716;2023-03-04T12:42:08;6.53;;;1.80;;
24567;SDS011;12731;52.182;8.716;2023-03-04T12:45:17;8.48;;;1.92;;
24567;SDS011;12731;52.182;8.716;2023-03-04T12:47:57;7.07;;;1.52;;
24567;SDS011;12731;52.182;8.716;2023-03-04T12:50:35;5.35;;;1.58;;
24567;SDS011;12731;52.182;8.716;2023-03-04T12:55:55;5.70;;;1.75;;
24567;SDS011;12731;52.182;8.716;2023-03-04T12:58:23;6.63;;;1.40;;
24567;SDS011;12731;52.182;8.716;2023-03-04T13:03:44;7.22;;;1.90;;
24567;SDS011;12731;52.182;8.716;2023-03-04T13:06:38;6.80;;;1.48;;
24567;SDS011;12731;52.182;8.716;2023-03-04T13:11:44;5.43;;;2.25;;
24567;SDS011;12731;52.182;8.716;2023-03-04T13:16:46;11.73;;;2.33;;
24567;SDS011;12731;52.182;8.716;2023-03-04T13:24:57;9.68;;;2.53;;
24567;SDS011;12731;52.182;8.716;2023-03-04T13:27:48;8.13;;;2.25;;
24567;SDS011;12731;52.182;8.716;2023-03-04T13:38:23;11.68;;;2.10;;
24567;SDS011;12731;52.182;8.716;2023-03-04T13:43:37;13.00;;;2.50;;
24567;SDS011;12731;52.182;8.716;2023-03-04T13:51:22;10.23;;;2.67;;
24567;SDS011;12731;52.182;8.716;2023-03-04T14:01:59;11.98;;;3.30;;
24567;SDS011;12731;52.182;8.716;2023-03-04T14:04:35;14.05;;;3.40;;
24567;SDS011;12731;52.182;8.716;2023-03-04T14:07:19;15.05;;;4.47;;
24567;SDS011;12731;52.182;8.716;2023-03-04T14:12:37;22.85;;;6.38;;
24567;SDS011;12731;52.182;8.716;2023-03-04T14:17:39;18.52;;;7.22;;
24567;SDS011;12731;52.182;8.716;2023-03-04T14:20:26;15.90;;;5.97;;
24567;SDS011;12731;52.182;8.716;2023-03-04T14:22:55;11.55;;;2.70;;
24567;SDS011;12731;52.182;8.716;2023-03-04T14:25:23;13.50;;;3.17;;
24567;SDS011;12731;52.182;8.716;2023-03-04T14:28:04;15.60;;;4.22;;
24567;SDS011;12731;52.182;8.716;2023-03-04T14:30:36;15.07;;;4.43;;
24567;SDS011;12731;52.182;8.716;2023-03-04T14:33:13;15.80;;;5.63;;
24567;SDS011;12731;52.182;8.716;2023-03-04T14:35:45;17.85;;;3.58;;
24567;SDS011;12731;52.182;8.716;2023-03-04T14:38:23;14.32;;;3.22;;
24567;SDS011;12731;52.182;8.716;2023-03-04T14:40:54;17.52;;;3.55;;
24567;SDS011;12731;52.182;8.716;2023-03-04T14:43:23;13.05;;;3.38;;
24567;SDS011;12731;52.182;8.716;2023-03-04T14:45:51;11.05;;;3.17;;
24567;SDS011;12731;52.182;8.716;2023-03-04T14:48:26;10.57;;;2.42;;
24567;SDS011;12731;52.182;8.716;2023-03-04T14:50:54;10.02;;;2.25;;
24567;SDS011;12731;52.182;8.716;2023-03-04T14:53:22;15.45;;;2.92;;
24567;SDS011;12731;52.182;8.716;2023-03-04T14:58:33;10.25;;;2.80;;
24567;SDS011;12731;52.182;8.716;2023-03-04T15:01:14;11.40;;;2.70;;
24567;SDS011;12731;52.182;8.716;2023-03-04T15:03:54;9.10;;;2.60;;
24567;SDS011;12731;52.182;8.716;2023-03-04T15:06:25;18.92;;;4.70;;
24567;SDS011;12731;52.182;8.716;2023-03-04T15:08:58;22.92;;;9.75;;
24567;SDS011;12731;52.182;8.716;2023-03-04T15:11:27;14.77;;;4.35;;
24567;SDS011;12731;52.182;8.716;2023-03-04T15:13:57;14.13;;;4.90;;
24567;SDS011;12731;52.182;8.716;2023-03-04T15:16:26;16.52;;;5.95;;
24567;SDS011;12731;52.182;8.716;2023-03-04T15:18:59;19.20;;;7.70;;
24567;SDS011;12731;52.182;8.716;2023-03-04T15:21:30;17.20;;;6.40;;
24567;SDS011;12731;52.182;8.716;2023-03-04T15:24:06;15.48;;;5.30;;
24567;SDS011;12731;52.182;8.716;2023-03-04T15:26:36;17.85;;;6.18;;
24567;SDS011;12731;52.182;8.716;2023-03-04T15:29:14;19.70;;;9.18;;
24567;SDS011;12731;52.182;8.716;2023-03-04T15:31:43;20.23;;;9.27;;
24567;SDS011;12731;52.182;8.716;2023-03-04T15:34:14;17.40;;;7.88;;
24567;SDS011;12731;52.182;8.716;2023-03-04T15:36:42;21.15;;;9.25;;
24567;SDS011;12731;52.182;8.716;2023-03-04T15:39:14;15.50;;;7.05;;
24567;SDS011;12731;52.182;8.716;2023-03-04T15:41:41;12.63;;;5.47;;
24567;SDS011;12731;52.182;8.716;2023-03-04T15:44:08;13.27;;;5.38;;
24567;SDS011;12731;52.182;8.716;2023-03-04T15:46:35;12.30;;;5.63;;
24567;SDS011;12731;52.182;8.716;2023-03-04T15:49:02;9.75;;;4.03;;
24567;SDS011;12731;52.182;8.716;2023-03-04T15:51:29;15.07;;;5.55;;
24567;SDS011;12731;52.182;8.716;2023-03-04T15:53:56;13.32;;;2.70;;
24567;SDS011;12731;52.182;8.716;2023-03-04T15:56:31;13.80;;;4.63;;
24567;SDS011;12731;52.182;8.716;2023-03-04T15:59:00;19.55;;;7.57;;
24567;SDS011;12731;52.182;8.716;2023-03-04T16:01:29;23.38;;;9.50;;
24567;SDS011;12731;52.182;8.716;2023-03-04T16:03:55;22.50;;;9.38;;
24567;SDS011;12731;52.182;8.716;2023-03-04T16:06:22;27.05;;;12.27;;
24567;SDS011;12731;52.182;8.716;2023-03-04T16:08:50;13.45;;;5.35;;
24567;SDS011;12731;52.182;8.716;2023-03-04T16:11:21;28.27;;;10.38;;
24567;SDS011;12731;52.182;8.716;2023-03-04T16:13:49;25.15;;;9.95;;
24567;SDS011;12731;52.182;8.716;2023-03-04T16:16:16;18.15;;;6.30;;
24567;SDS011;12731;52.182;8.716;2023-03-04T16:18:43;13.50;;;5.13;;
24567;SDS011;12731;52.182;8.716;2023-03-04T16:21:13;13.27;;;4.50;;
24567;SDS011;12731;52.182;8.716;2023-03-04T16:23:43;16.08;;;4.35;;
24567;SDS011;12731;52.182;8.716;2023-03-04T16:26:12;11.57;;;3.67;;